sensor_id;sensor_type;location;lat;lon;timestamp;pressure;altitude;pressure_sealevel;temperature;humidity
50093;BME280;35974;47.752;10.290;2022-11-14T00:00:58;93808.75;;;1.90;100.00
50093;BME280;35974;47.752;10.290;2022-11-14T00:03:24;93732.59;;;1.25;100.00
50093;BME280;35974;47.752;10.290;2022-11-14T00:05:52;93780.84;;;1.59;100.00
50093;BME280;35974;47.752;10.290;2022-11-14T00:08:23;93813.31;;;1.96;100.00
50093;BME280;35974;47.752;10.290;2022-11-14T00:10:52;93787.63;;;1.86;100.00
50093;BME280;35974;47.752;10.290;2022-11-14T00:13:19;93766.34;;;1.58;100.00
50093;BME280;35974;47.752;10.290;2022-11-14T00:15:50;93784.09;;;1.61;100.00
50093;BME280;35974;47.752;10.290;2022-11-14T00:18:21;93819.50;;;1.77;100.00
50093;BME280;35974;47.752;10.290;2022-11-14T00:20:51;93827.59;;;2.08;100.00
50093;BME280;35974;47.752;10.290;2022-11-14T00:23:19;93812.09;;;1.56;100.00
50093;BME280;35974;47.752;10.290;2022-11-14T00:25:46;93825.88;;;1.64;100.00
50093;BME280;35974;47.752;10.290;2022-11-14T00:28:13;93795.06;;;1.19;100.00
50093;BME280;35974;47.752;10.290;2022-11-14T00:30:40;93793.44;;;1.18;100.00
50093;BME280;35974;47.752;10.290;2022-11-14T00:33:06;93803.16;;;1.24;100.00
50093;BME280;35974;47.752;10.290;2022-11-14T00:35:32;93811.75;;;1.33;100.00
50093;BME280;35974;47.752;10.290;2022-11-14T00:37:59;93793.84;;;1.31;100.00
50093;BME280;35974;47.752;10.290;2022-11-14T00:40:25;93784.81;;;1.27;100.00
50093;BME280;35974;47.752;10.290;2022-11-14T00:42:52;93798.63;;;1.44;100.00
50093;BME280;35974;47.752;10.290;2022-11-14T00:45:18;93811.78;;;1.59;100.00
50093;BME280;35974;47.752;10.290;2022-11-14T00:47:45;93775.88;;;1.39;100.00
50093;BME280;35974;47.752;10.290;2022-11-14T00:50:11;93822.53;;;1.98;100.00
50093;BME280;35974;47.752;10.290;2022-11-14T00:52:38;93769.53;;;1.52;100.00
50093;BME280;35974;47.752;10.290;2022-11-14T00:55:05;93760.69;;;1.36;100.00
50093;BME280;35974;47.752;10.290;2022-11-14T00:57:31;93779.25;;;1.58;100.00
50093;BME280;35974;47.752;10.290;2022-11-14T00:59:58;93771.53;;;1.40;100.00
50093;BME280;35974;47.752;10.290;2022-11-14T01:02:24;93795.00;;;1.55;100.00
50093;BME280;35974;47.752;10.290;2022-11-14T01:04:51;93778.50;;;1.48;100.00
50093;BME280;35974;47.752;10.290;2022-11-14T01:07:17;93783.47;;;1.67;100.00
50093;BME280;35974;47.752;10.290;2022-11-14T01:09:44;93799.63;;;1.69;100.00
50093;BME280;35974;47.752;10.290;2022-11-14T01:12:11;93764.56;;;1.32;100.00
50093;BME280;35974;47.752;10.290;2022-11-14T01:14:39;93790.16;;;1.52;100.00
50093;BME280;35974;47.752;10.290;2022-11-14T01:17:06;93776.72;;;1.66;100.00
50093;BME280;35974;47.752;10.290;2022-11-14T01:19:32;93714.00;;;1.13;100.00
50093;BME280;35974;47.752;10.290;2022-11-14T01:21:59;93799.25;;;1.64;100.00
50093;BME280;35974;47.752;10.290;2022-11-14T01:24:32;93803.75;;;1.62;100.00
50093;BME280;35974;47.752;10.290;2022-11-14T01:26:59;93808.38;;;1.76;100.00
50093;BME280;35974;47.752;10.290;2022-11-14T01:29:26;93763.00;;;1.21;100.00
50093;BME280;35974;47.752;10.290;2022-11-14T01:31:53;93810.50;;;1.55;100.00
50093;BME280;35974;47.752;10.290;2022-11-14T01:34:20;93770.72;;;1.39;100.00
50093;BME280;35974;47.752;10.290;2022-11-14T01:36:46;93817.50;;;1.89;100.00
50093;BME280;35974;47.752;10.290;2022-11-14T01:39:13;93826.19;;;1.88;100.00
50093;BME280;35974;47.752;10.290;2022-11-14T01:41:39;93762.75;;;1.51;100.00
50093;BME280;35974;47.752;10.290;2022-11-14T01:44:36;93757.47;;;1.34;100.00
50093;BME280;35974;47.752;10.290;2022-11-14T01:47:03;93749.19;;;1.49;100.00
50093;BME280;35974;47.752;10.290;2022-11-14T01:49:37;93806.44;;;1.78;100.00
50093;BME280;35974;47.752;10.290;2022-11-14T01:52:14;93681.63;;;0.75;100.00
50093;BME280;35974;47.752;10.290;2022-11-14T01:54:44;93813.41;;;1.60;100.00
50093;BME280;35974;47.752;10.290;2022-11-14T01:57:16;93758.97;;;1.19;100.00
50093;BME280;35974;47.752;10.290;2022-11-14T01:59:49;93712.25;;;0.96;100.00
50093;BME280;35974;47.752;10.290;2022-11-14T02:02:19;93820.91;;;1.71;100.00
50093;BME280;35974;47.752;10.290;2022-11-14T02:04:50;93807.88;;;1.99;100.00
50093;BME280;35974;47.752;10.290;2022-11-14T02:07:19;93788.03;;;1.73;100.00
50093;BME280;35974;47.752;10.290;2022-11-14T02:09:46;93746.56;;;1.40;100.00
50093;BME280;35974;47.752;10.290;2022-11-14T02:12:16;93657.66;;;0.74;100.00
50093;BME280;35974;47.752;10.290;2022-11-14T02:14:44;93806.75;;;1.75;100.00
50093;BME280;35974;47.752;10.290;2022-11-14T02:17:14;93667.09;;;1.09;100.00
50093;BME280;35974;47.752;10.290;2022-11-14T02:22:37;93802.69;;;1.99;100.00
50093;BME280;35974;47.752;10.290;2022-11-14T02:25:05;93804.22;;;1.83;100.00
50093;BME280;35974;47.752;10.290;2022-11-14T02:27:32;93830.44;;;1.97;100.00
50093;BME280;35974;47.752;10.290;2022-11-14T02:30:09;93806.75;;;1.75;100.00
50093;BME280;35974;47.752;10.290;2022-11-14T02:32:36;93730.69;;;1.27;100.00
50093;BME280;35974;47.752;10.290;2022-11-14T02:35:23;93740.06;;;1.36;100.00
50093;BME280;35974;47.752;10.290;2022-11-14T02:37:49;93768.63;;;1.61;100.00
50093;BME280;35974;47.752;10.290;2022-11-14T02:40:16;93724.00;;;1.42;100.00
50093;BME280;35974;47.752;10.290;2022-11-14T02:42:42;93741.16;;;1.52;100.00
50093;BME280;35974;47.752;10.290;2022-11-14T02:45:10;93782.28;;;1.79;100.00
50093;BME280;35974;47.752;10.290;2022-11-14T02:47:37;93802.09;;;2.05;100.00
50093;BME280;35974;47.752;10.290;2022-11-14T02:50:04;93767.09;;;1.76;100.00
50093;BME280;35974;47.752;10.290;2022-11-14T02:52:30;93736.75;;;1.70;100.00
50093;BME280;35974;47.752;10.290;2022-11-14T02:54:57;93619.09;;;1.08;100.00
50093;BME280;35974;47.752;10.290;2022-11-14T02:57:23;93797.63;;;2.15;100.00
50093;BME280;35974;47.752;10.290;2022-11-14T02:59:51;93707.13;;;1.74;100.00
50093;BME280;35974;47.752;10.290;2022-11-14T03:02:17;93659.81;;;1.31;100.00
50093;BME280;35974;47.752;10.290;2022-11-14T03:04:44;93640.69;;;1.07;100.00
50093;BME280;35974;47.752;10.290;2022-11-14T03:07:10;93786.47;;;2.07;100.00
50093;BME280;35974;47.752;10.290;2022-11-14T03:09:37;93751.56;;;2.03;100.00
50093;BME280;35974;47.752;10.290;2022-11-14T03:12:03;93710.78;;;2.06;100.00
50093;BME280;35974;47.752;10.290;2022-11-14T03:14:30;93688.06;;;1.75;100.00
50093;BME280;35974;47.752;10.290;2022-11-14T03:16:57;93750.53;;;2.22;100.00
50093;BME280;35974;47.752;10.290;2022-11-14T03:19:23;93742.38;;;2.00;100.00
50093;BME280;35974;47.752;10.290;2022-11-14T03:21:50;93675.84;;;1.77;100.00
50093;BME280;35974;47.752;10.290;2022-11-14T03:24:16;93730.13;;;2.02;100.00
50093;BME280;35974;47.752;10.290;2022-11-14T03:26:43;93637.38;;;1.50;100.00
50093;BME280;35974;47.752;10.290;2022-11-14T03:29:09;93697.47;;;1.85;100.00
50093;BME280;35974;47.752;10.290;2022-11-14T03:31:36;93709.25;;;1.79;100.00
50093;BME280;35974;47.752;10.290;2022-11-14T03:34:02;93785.81;;;2.47;100.00
50093;BME280;35974;47.752;10.290;2022-11-14T03:36:29;93774.16;;;2.43;100.00
50093;BME280;35974;47.752;10.290;2022-11-14T03:39:05;93708.81;;;1.92;100.00
50093;BME280;35974;47.752;10.290;2022-11-14T03:41:32;93766.41;;;2.35;100.00
50093;BME280;35974;47.752;10.290;2022-11-14T03:43:58;93667.75;;;1.72;100.00
50093;BME280;35974;47.752;10.290;2022-11-14T03:46:25;93629.03;;;1.64;100.00
50093;BME280;35974;47.752;10.290;2022-11-14T03:48:52;93725.03;;;2.18;100.00
50093;BME280;35974;47.752;10.290;2022-11-14T03:51:22;93715.38;;;2.29;100.00
50093;BME280;35974;47.752;10.290;2022-11-14T03:53:49;93754.22;;;2.70;100.00
50093;BME280;35974;47.752;10.290;2022-11-14T03:56:15;93661.28;;;1.68;100.00
50093;BME280;35974;47.752;10.290;2022-11-14T03:58:42;93649.63;;;1.56;100.00
50093;BME280;35974;47.752;10.290;2022-11-14T04:01:08;93639.03;;;1.67;100.00
50093;BME280;35974;47.752;10.290;2022-11-14T04:03:35;93677.50;;;1.95;100.00
50093;BME280;35974;47.752;10.290;2022-11-14T04:06:01;93694.84;;;2.19;100.00
50093;BME280;35974;47.752;10.290;2022-11-14T04:08:28;93662.75;;;2.22;100.00
50093;BME280;35974;47.752;10.290;2022-11-14T04:10:55;93639.03;;;1.67;100.00
50093;BME280;35974;47.752;10.290;2022-11-14T04:13:23;93653.66;;;1.93;100.00
50093;BME280;35974;47.752;10.290;2022-11-14T04:15:53;93726.09;;;2.42;100.00
50093;BME280;35974;47.752;10.290;2022-11-14T04:18:20;93666.50;;;1.85;100.00
50093;BME280;35974;47.752;10.290;2022-11-14T04:20:47;93698.97;;;2.54;100.00
50093;BME280;35974;47.752;10.290;2022-11-14T04:23:13;93661.75;;;2.14;100.00
50093;BME280;35974;47.752;10.290;2022-11-14T04:25:42;93578.09;;;1.58;100.00
50093;BME280;35974;47.752;10.290;2022-11-14T04:28:09;93534.47;;;1.30;100.00
50093;BME280;35974;47.752;10.290;2022-11-14T04:30:35;93729.03;;;2.64;100.00
50093;BME280;35974;47.752;10.290;2022-11-14T04:33:02;93517.09;;;1.32;100.00
50093;BME280;35974;47.752;10.290;2022-11-14T04:35:29;93553.53;;;1.45;100.00
50093;BME280;35974;47.752;10.290;2022-11-14T04:37:55;93713.81;;;2.44;100.00
50093;BME280;35974;47.752;10.290;2022-11-14T04:40:22;93664.38;;;2.23;100.00
50093;BME280;35974;47.752;10.290;2022-11-14T04:42:48;93651.78;;;2.11;100.00
50093;BME280;35974;47.752;10.290;2022-11-14T04:45:15;93582.81;;;1.71;100.00
50093;BME280;35974;47.752;10.290;2022-11-14T04:47:41;93676.38;;;2.56;100.00
50093;BME280;35974;47.752;10.290;2022-11-14T04:50:09;93729.38;;;3.02;100.00
50093;BME280;35974;47.752;10.290;2022-11-14T04:52:35;93658.84;;;2.09;100.00
50093;BME280;35974;47.752;10.290;2022-11-14T04:55:02;93669.22;;;2.26;100.00
50093;BME280;35974;47.752;10.290;2022-11-14T04:57:29;93597.44;;;1.70;100.00
50093;BME280;35974;47.752;10.290;2022-11-14T04:59:55;93622.38;;;1.96;100.00
50093;BME280;35974;47.752;10.290;2022-11-14T05:02:22;93674.34;;;2.09;100.00
50093;BME280;35974;47.752;10.290;2022-11-14T05:04:48;93616.50;;;1.69;100.00
50093;BME280;35974;47.752;10.290;2022-11-14T05:07:17;93677.94;;;2.25;100.00
50093;BME280;35974;47.752;10.290;2022-11-14T05:09:43;93679.53;;;2.26;100.00
50093;BME280;35974;47.752;10.290;2022-11-14T05:12:10;93697.03;;;2.48;100.00
50093;BME280;35974;47.752;10.290;2022-11-14T05:14:36;93681.47;;;2.24;100.00
50093;BME280;35974;47.752;10.290;2022-11-14T05:17:03;93607.75;;;1.62;100.00
50093;BME280;35974;47.752;10.290;2022-11-14T05:19:29;93597.03;;;1.40;100.00
50093;BME280;35974;47.752;10.290;2022-11-14T05:21:56;93662.59;;;1.72;100.00
50093;BME280;35974;47.752;10.290;2022-11-14T05:24:22;93707.06;;;2.00;100.00
50093;BME280;35974;47.752;10.290;2022-11-14T05:26:49;93724.06;;;2.11;100.00
50093;BME280;35974;47.752;10.290;2022-11-14T05:29:16;93722.41;;;2.10;100.00
50093;BME280;35974;47.752;10.290;2022-11-14T05:31:42;93686.16;;;1.77;100.00
50093;BME280;35974;47.752;10.290;2022-11-14T05:34:09;93698.09;;;1.78;100.00
50093;BME280;35974;47.752;10.290;2022-11-14T05:36:35;93597.63;;;1.34;100.00
50093;BME280;35974;47.752;10.290;2022-11-14T05:39:02;93572.41;;;1.12;100.00
50093;BME280;35974;47.752;10.290;2022-11-14T05:41:28;93617.56;;;1.24;100.00
50093;BME280;35974;47.752;10.290;2022-11-14T05:43:55;93603.66;;;1.17;100.00
50093;BME280;35974;47.752;10.290;2022-11-14T05:46:21;93588.25;;;1.25;100.00
50093;BME280;35974;47.752;10.290;2022-11-14T05:48:48;93576.88;;;1.01;100.00
50093;BME280;35974;47.752;10.290;2022-11-14T05:51:14;93713.16;;;1.91;100.00
50093;BME280;35974;47.752;10.290;2022-11-14T05:53:41;93622.13;;;1.30;100.00
50093;BME280;35974;47.752;10.290;2022-11-14T05:56:10;93579.75;;;0.98;100.00
50093;BME280;35974;47.752;10.290;2022-11-14T05:58:37;93697.78;;;1.81;100.00
50093;BME280;35974;47.752;10.290;2022-11-14T06:01:13;93638.59;;;1.37;100.00
50093;BME280;35974;47.752;10.290;2022-11-14T06:03:42;93614.63;;;1.11;100.00
50093;BME280;35974;47.752;10.290;2022-11-14T06:06:11;93617.97;;;1.37;100.00
50093;BME280;35974;47.752;10.290;2022-11-14T06:08:39;93677.31;;;1.88;100.00
50093;BME280;35974;47.752;10.290;2022-11-14T06:11:14;93605.09;;;1.45;100.00
50093;BME280;35974;47.752;10.290;2022-11-14T06:13:42;93672.22;;;1.62;100.00
50093;BME280;35974;47.752;10.290;2022-11-14T06:16:19;93676.38;;;1.55;100.00
50093;BME280;35974;47.752;10.290;2022-11-14T06:18:46;93637.97;;;1.43;100.00
50093;BME280;35974;47.752;10.290;2022-11-14T06:21:15;93578.91;;;0.89;100.00
50093;BME280;35974;47.752;10.290;2022-11-14T06:23:42;93584.84;;;0.90;100.00
50093;BME280;35974;47.752;10.290;2022-11-14T06:26:29;93726.47;;;1.78;100.00
50093;BME280;35974;47.752;10.290;2022-11-14T06:28:57;93620.50;;;1.29;100.00
50093;BME280;35974;47.752;10.290;2022-11-14T06:31:25;93667.38;;;1.59;100.00
50093;BME280;35974;47.752;10.290;2022-11-14T06:33:52;93717.88;;;1.70;100.00
50093;BME280;35974;47.752;10.290;2022-11-14T06:36:19;93715.06;;;1.89;100.00
50093;BME280;35974;47.752;10.290;2022-11-14T06:38:45;93717.88;;;2.04;100.00
50093;BME280;35974;47.752;10.290;2022-11-14T06:43:40;93746.34;;;2.29;100.00
50093;BME280;35974;47.752;10.290;2022-11-14T06:46:08;93729.53;;;2.08;100.00
50093;BME280;35974;47.752;10.290;2022-11-14T06:49:08;93750.22;;;2.25;100.00
50093;BME280;35974;47.752;10.290;2022-11-14T06:51:43;93738.53;;;2.04;100.00
50093;BME280;35974;47.752;10.290;2022-11-14T06:54:14;93751.50;;;2.20;100.00
50093;BME280;35974;47.752;10.290;2022-11-14T06:56:51;93743.69;;;2.04;100.00
50093;BME280;35974;47.752;10.290;2022-11-14T06:59:21;93755.63;;;2.05;100.00
50093;BME280;35974;47.752;10.290;2022-11-14T07:01:48;93746.72;;;1.99;100.00
50093;BME280;35974;47.752;10.290;2022-11-14T07:04:14;93730.13;;;2.02;100.00
50093;BME280;35974;47.752;10.290;2022-11-14T07:06:41;93749.22;;;2.17;100.00
50093;BME280;35974;47.752;10.290;2022-11-14T07:09:09;93718.56;;;2.14;100.00
50093;BME280;35974;47.752;10.290;2022-11-14T07:11:36;93746.03;;;2.32;100.00
50093;BME280;35974;47.752;10.290;2022-11-14T07:16:56;93761.00;;;2.79;100.00
50093;BME280;35974;47.752;10.290;2022-11-14T07:19:23;93748.41;;;2.68;100.00
50093;BME280;35974;47.752;10.290;2022-11-14T07:21:55;93743.25;;;2.76;100.00
50093;BME280;35974;47.752;10.290;2022-11-14T07:24:22;93748.13;;;2.96;100.00
50093;BME280;35974;47.752;10.290;2022-11-14T07:26:48;93751.06;;;3.01;100.00
50093;BME280;35974;47.752;10.290;2022-11-14T07:29:18;93737.63;;;3.05;100.00
50093;BME280;35974;47.752;10.290;2022-11-14T07:31:44;93745.56;;;3.37;100.00
50093;BME280;35974;47.752;10.290;2022-11-14T07:34:24;93761.78;;;4.03;100.00
50093;BME280;35974;47.752;10.290;2022-11-14T07:36:50;93755.03;;;3.85;100.00
50093;BME280;35974;47.752;10.290;2022-11-14T07:39:22;93723.50;;;3.82;100.00
50093;BME280;35974;47.752;10.290;2022-11-14T07:41:48;93741.53;;;4.07;100.00
50093;BME280;35974;47.752;10.290;2022-11-14T07:44:26;93734.34;;;4.25;100.00
50093;BME280;35974;47.752;10.290;2022-11-14T07:46:52;93700.97;;;4.30;100.00
50093;BME280;35974;47.752;10.290;2022-11-14T07:49:19;93732.66;;;4.72;100.00
50093;BME280;35974;47.752;10.290;2022-11-14T07:51:45;93716.50;;;4.30;100.00
50093;BME280;35974;47.752;10.290;2022-11-14T07:54:12;93715.91;;;4.20;100.00
50093;BME280;35974;47.752;10.290;2022-11-14T07:56:38;93730.91;;;4.33;100.00
50093;BME280;35974;47.752;10.290;2022-11-14T07:59:05;93732.03;;;4.30;100.00
50093;BME280;35974;47.752;10.290;2022-11-14T08:01:31;93715.97;;;4.03;100.00
50093;BME280;35974;47.752;10.290;2022-11-14T08:03:58;93741.72;;;3.97;100.00
50093;BME280;35974;47.752;10.290;2022-11-14T08:06:24;93732.13;;;4.14;100.00
50093;BME280;35974;47.752;10.290;2022-11-14T08:08:51;93735.06;;;4.02;100.00
50093;BME280;35974;47.752;10.290;2022-11-14T08:11:17;93752.56;;;4.00;100.00
50093;BME280;35974;47.752;10.290;2022-11-14T08:14:04;93745.78;;;3.91;100.00
50093;BME280;35974;47.752;10.290;2022-11-14T08:16:30;93746.13;;;3.80;100.00
50093;BME280;35974;47.752;10.290;2022-11-14T08:18:57;93760.69;;;3.89;100.00
50093;BME280;35974;47.752;10.290;2022-11-14T08:21:23;93761.31;;;3.83;100.00
50093;BME280;35974;47.752;10.290;2022-11-14T08:23:50;93757.59;;;3.94;100.00
50093;BME280;35974;47.752;10.290;2022-11-14T08:26:16;93746.06;;;3.96;100.00
50093;BME280;35974;47.752;10.290;2022-11-14T08:28:43;93734.22;;;3.62;100.00
50093;BME280;35974;47.752;10.290;2022-11-14T08:31:17;93719.72;;;3.93;100.00
50093;BME280;35974;47.752;10.290;2022-11-14T08:33:44;93753.47;;;4.24;100.00
50093;BME280;35974;47.752;10.290;2022-11-14T08:36:10;93757.00;;;4.23;100.00
50093;BME280;35974;47.752;10.290;2022-11-14T08:38:52;93737.84;;;4.40;100.00
50093;BME280;35974;47.752;10.290;2022-11-14T08:41:25;93743.63;;;4.51;100.00
50093;BME280;35974;47.752;10.290;2022-11-14T08:43:52;93763.72;;;4.80;100.00
50093;BME280;35974;47.752;10.290;2022-11-14T08:46:32;93736.16;;;4.79;100.00
50093;BME280;35974;47.752;10.290;2022-11-14T08:48:58;93740.78;;;4.92;100.00
50093;BME280;35974;47.752;10.290;2022-11-14T08:51:24;93754.06;;;5.20;100.00
50093;BME280;35974;47.752;10.290;2022-11-14T08:53:51;93759.47;;;5.34;100.00
50093;BME280;35974;47.752;10.290;2022-11-14T08:56:17;93756.56;;;5.52;100.00
50093;BME280;35974;47.752;10.290;2022-11-14T08:58:50;93778.72;;;5.77;100.00
50093;BME280;35974;47.752;10.290;2022-11-14T09:01:16;93775.44;;;5.83;100.00
50093;BME280;35974;47.752;10.290;2022-11-14T09:03:43;93752.78;;;5.92;100.00
50093;BME280;35974;47.752;10.290;2022-11-14T09:06:10;93765.78;;;6.07;100.00
50093;BME280;35974;47.752;10.290;2022-11-14T09:08:36;93790.44;;;6.26;100.00
50093;BME280;35974;47.752;10.290;2022-11-14T09:11:03;93781.41;;;6.37;100.00
50093;BME280;35974;47.752;10.290;2022-11-14T09:13:41;93772.03;;;6.57;100.00
50093;BME280;35974;47.752;10.290;2022-11-14T09:16:07;93733.88;;;6.43;100.00
50093;BME280;35974;47.752;10.290;2022-11-14T09:18:34;93810.91;;;6.95;100.00
50093;BME280;35974;47.752;10.290;2022-11-14T09:21:01;93805.31;;;6.99;100.00
50093;BME280;35974;47.752;10.290;2022-11-14T09:23:29;93767.31;;;6.97;100.00
50093;BME280;35974;47.752;10.290;2022-11-14T09:25:56;93793.97;;;7.21;100.00
50093;BME280;35974;47.752;10.290;2022-11-14T09:28:23;93804.59;;;7.41;100.00
50093;BME280;35974;47.752;10.290;2022-11-14T09:30:49;93802.28;;;7.53;100.00
50093;BME280;35974;47.752;10.290;2022-11-14T09:33:15;93778.00;;;7.46;100.00
50093;BME280;35974;47.752;10.290;2022-11-14T09:35:42;93824.31;;;8.00;100.00
50093;BME280;35974;47.752;10.290;2022-11-14T09:38:15;93830.44;;;8.14;98.32
50093;BME280;35974;47.752;10.290;2022-11-14T09:40:56;93829.31;;;8.30;98.38
50093;BME280;35974;47.752;10.290;2022-11-14T09:48:56;93836.94;;;8.95;93.07
50093;BME280;35974;47.752;10.290;2022-11-14T09:51:48;93828.19;;;9.23;91.37
50093;BME280;35974;47.752;10.290;2022-11-14T09:54:20;93808.94;;;9.24;91.30
50093;BME280;35974;47.752;10.290;2022-11-14T09:56:48;93793.69;;;9.34;89.98
50093;BME280;35974;47.752;10.290;2022-11-14T09:59:15;93818.25;;;9.60;90.88
50093;BME280;35974;47.752;10.290;2022-11-14T10:01:54;93824.69;;;9.77;90.40
50093;BME280;35974;47.752;10.290;2022-11-14T10:09:50;93848.81;;;10.66;82.00
50093;BME280;35974;47.752;10.290;2022-11-14T10:12:36;93834.75;;;10.60;80.35
50093;BME280;35974;47.752;10.290;2022-11-14T10:17:52;93838.31;;;10.86;81.63
50093;BME280;35974;47.752;10.290;2022-11-14T10:25:50;93835.78;;;11.18;80.66
50093;BME280;35974;47.752;10.290;2022-11-14T10:31:38;93862.44;;;11.02;80.94
50093;BME280;35974;47.752;10.290;2022-11-14T10:34:11;93834.47;;;10.89;81.58
50093;BME280;35974;47.752;10.290;2022-11-14T10:36:53;93839.63;;;11.09;79.53
50093;BME280;35974;47.752;10.290;2022-11-14T10:39:25;93866.22;;;11.12;79.64
50093;BME280;35974;47.752;10.290;2022-11-14T10:41:58;93868.47;;;11.02;80.48
50093;BME280;35974;47.752;10.290;2022-11-14T10:44:37;93843.91;;;10.96;82.09
50093;BME280;35974;47.752;10.290;2022-11-14T10:47:14;93861.16;;;11.11;80.24
50093;BME280;35974;47.752;10.290;2022-11-14T10:49:45;93838.97;;;11.27;78.92
50093;BME280;35974;47.752;10.290;2022-11-14T10:52:14;93854.22;;;11.36;76.43
50093;BME280;35974;47.752;10.290;2022-11-14T10:54:46;93845.72;;;11.48;76.60
50093;BME280;35974;47.752;10.290;2022-11-14T10:57:18;93860.00;;;11.84;77.32
50093;BME280;35974;47.752;10.290;2022-11-14T11:00:01;93851.41;;;12.08;73.31
50093;BME280;35974;47.752;10.290;2022-11-14T11:02:46;93840.81;;;12.22;73.06
50093;BME280;35974;47.752;10.290;2022-11-14T11:05:15;93854.34;;;12.44;69.62
50093;BME280;35974;47.752;10.290;2022-11-14T11:07:44;93857.25;;;12.61;69.55
50093;BME280;35974;47.752;10.290;2022-11-14T11:10:57;93833.09;;;12.27;66.89
50093;BME280;35974;47.752;10.290;2022-11-14T11:13:57;93852.28;;;12.02;68.77
50093;BME280;35974;47.752;10.290;2022-11-14T11:16:25;93842.41;;;12.23;69.33
50093;BME280;35974;47.752;10.290;2022-11-14T11:18:53;93792.53;;;12.04;66.65
50093;BME280;35974;47.752;10.290;2022-11-14T11:21:21;93815.75;;;12.26;70.47
50093;BME280;35974;47.752;10.290;2022-11-14T11:24:02;93804.19;;;12.08;68.53
50093;BME280;35974;47.752;10.290;2022-11-14T11:26:30;93816.06;;;12.36;70.73
50093;BME280;35974;47.752;10.290;2022-11-14T11:29:14;93807.19;;;12.37;70.22
50093;BME280;35974;47.752;10.290;2022-11-14T11:32:01;93784.06;;;12.27;67.89
50093;BME280;35974;47.752;10.290;2022-11-14T11:34:31;93760.25;;;12.48;68.60
50093;BME280;35974;47.752;10.290;2022-11-14T11:37:18;93786.38;;;12.61;66.86
50093;BME280;35974;47.752;10.290;2022-11-14T11:39:52;93791.63;;;12.61;67.01
50093;BME280;35974;47.752;10.290;2022-11-14T11:42:41;93781.56;;;12.58;68.40
50093;BME280;35974;47.752;10.290;2022-11-14T11:45:32;93780.38;;;12.54;68.63
50093;BME280;35974;47.752;10.290;2022-11-14T11:48:18;93793.53;;;12.72;69.57
50093;BME280;35974;47.752;10.290;2022-11-14T11:50:45;93812.75;;;12.85;68.69
50093;BME280;35974;47.752;10.290;2022-11-14T11:53:31;93786.19;;;12.56;68.79
50093;BME280;35974;47.752;10.290;2022-11-14T11:56:12;93799.28;;;12.81;67.36
50093;BME280;35974;47.752;10.290;2022-11-14T12:01:32;93816.75;;;12.50;71.06
50093;BME280;35974;47.752;10.290;2022-11-14T12:03:59;93798.47;;;12.18;72.16
50093;BME280;35974;47.752;10.290;2022-11-14T12:06:28;93785.81;;;12.34;70.55
50093;BME280;35974;47.752;10.290;2022-11-14T12:09:21;93814.47;;;12.35;71.01
50093;BME280;35974;47.752;10.290;2022-11-14T12:12:10;93805.88;;;12.47;70.41
50093;BME280;35974;47.752;10.290;2022-11-14T12:14:54;93806.03;;;12.33;71.74
50093;BME280;35974;47.752;10.290;2022-11-14T12:31:13;93799.06;;;12.82;69.38
50093;BME280;35974;47.752;10.290;2022-11-14T12:34:02;93814.88;;;12.94;68.39
50093;BME280;35974;47.752;10.290;2022-11-14T12:36:32;93811.00;;;12.97;68.85
50093;BME280;35974;47.752;10.290;2022-11-14T12:39:00;93764.03;;;12.70;67.75
50093;BME280;35974;47.752;10.290;2022-11-14T12:41:30;93789.69;;;12.87;63.22
50093;BME280;35974;47.752;10.290;2022-11-14T12:47:12;93807.94;;;12.81;67.64
50093;BME280;35974;47.752;10.290;2022-11-14T12:58:19;93804.41;;;13.25;60.43
50093;BME280;35974;47.752;10.290;2022-11-14T13:06:04;93834.63;;;12.78;60.26
50093;BME280;35974;47.752;10.290;2022-11-14T13:08:48;93829.41;;;12.97;61.01
50093;BME280;35974;47.752;10.290;2022-11-14T13:14:21;93811.91;;;12.72;60.23
50093;BME280;35974;47.752;10.290;2022-11-14T13:17:23;93806.75;;;12.40;59.79
50093;BME280;35974;47.752;10.290;2022-11-14T13:28:51;93803.34;;;12.15;60.52
50093;BME280;35974;47.752;10.290;2022-11-14T13:31:42;93790.22;;;12.15;59.43
50093;BME280;35974;47.752;10.290;2022-11-14T13:37:07;93799.88;;;12.39;62.45
50093;BME280;35974;47.752;10.290;2022-11-14T13:39:46;93814.34;;;12.49;61.55
50093;BME280;35974;47.752;10.290;2022-11-14T13:45:12;93819.28;;;12.38;60.38
50093;BME280;35974;47.752;10.290;2022-11-14T13:48:13;93825.09;;;12.22;59.41
50093;BME280;35974;47.752;10.290;2022-11-14T13:50:47;93816.19;;;12.23;60.58
50093;BME280;35974;47.752;10.290;2022-11-14T13:53:22;93826.56;;;12.36;60.28
50093;BME280;35974;47.752;10.290;2022-11-14T13:55:53;93822.97;;;12.31;60.08
50093;BME280;35974;47.752;10.290;2022-11-14T13:58:34;93796.53;;;12.32;58.82
50093;BME280;35974;47.752;10.290;2022-11-14T14:04:22;93811.28;;;12.33;61.82
50093;BME280;35974;47.752;10.290;2022-11-14T14:15:45;93800.78;;;12.33;65.02
50093;BME280;35974;47.752;10.290;2022-11-14T14:21:15;93794.47;;;12.16;66.53
50093;BME280;35974;47.752;10.290;2022-11-14T14:23:52;93794.75;;;12.26;66.46
50093;BME280;35974;47.752;10.290;2022-11-14T14:26:48;93801.69;;;12.20;67.43
50093;BME280;35974;47.752;10.290;2022-11-14T14:29:31;93804.47;;;12.25;68.63
50093;BME280;35974;47.752;10.290;2022-11-14T14:32:14;93803.59;;;12.32;69.00
50093;BME280;35974;47.752;10.290;2022-11-14T14:34:41;93787.16;;;12.18;69.13
50093;BME280;35974;47.752;10.290;2022-11-14T14:37:22;93771.06;;;12.14;68.43
50093;BME280;35974;47.752;10.290;2022-11-14T14:40:00;93785.56;;;12.17;69.11
50093;BME280;35974;47.752;10.290;2022-11-14T14:42:35;93776.81;;;12.04;69.48
50093;BME280;35974;47.752;10.290;2022-11-14T14:45:03;93807.31;;;12.24;69.94